Time;durP1;ratioP1;P1;durP2;ratioP2;P2;SDS_P1;SDS_P2;PMS_P1;PMS_P2;Temp;Humidity;BMP_temperature;BMP_pressure;BME280_temperature;BME280_humidity;BME280_pressure;Samples;Min_cycle;Max_cycle;Signal;HPM_P1;HPM_P2
2024/01/15 00:02:03;;;;;;;10.27;5.50;;;;;;;1.45;100.00;100340.13;5016365;28;20132;-86
2024/01/15 00:04:28;;;;;;;13.82;6.57;;;;;;;1.45;100.00;100334.91;4998691;28;20041;-86
2024/01/15 00:06:54;;;;;;;16.73;7.47;;;;;;;1.39;100.00;100314.75;4998478;28;20042;-86
2024/01/15 00:09:19;;;;;;;17.40;8.00;;;;;;;1.50;100.00;100328.19;5016182;28;20070;-86
2024/01/15 00:11:44;;;;;;;15.75;7.78;;;;;;;1.46;100.00;100321.09;5016336;28;20034;-86
2024/01/15 00:14:10;;;;;;;18.05;9.25;;;;;;;1.45;100.00;100324.50;5015705;28;20534;-86
2024/01/15 00:16:35;;;;;;;19.80;9.10;;;;;;;1.46;100.00;100323.69;5016535;28;20050;-85
2024/01/15 00:19:01;;;;;;;18.88;9.50;;;;;;;1.42;100.00;100320.09;5016589;28;20079;-85
2024/01/15 00:21:27;;;;;;;18.63;9.77;;;;;;;1.42;100.00;100314.00;4998670;28;20164;-82
2024/01/15 00:23:53;;;;;;;21.23;9.32;;;;;;;1.39;100.00;100312.16;5016234;28;20034;-84
2024/01/15 00:26:18;;;;;;;21.00;9.60;;;;;;;1.34;100.00;100303.28;5016168;28;20442;-85
2024/01/15 00:28:44;;;;;;;20.33;9.32;;;;;;;1.34;100.00;100297.19;5016105;28;20037;-84
2024/01/15 00:31:09;;;;;;;21.63;10.02;;;;;;;1.38;100.00;100306.91;4998304;28;20433;-84
2024/01/15 00:33:35;;;;;;;21.52;9.18;;;;;;;1.34;100.00;100305.00;4998503;28;20080;-85
2024/01/15 00:36:00;;;;;;;21.60;10.70;;;;;;;1.35;100.00;100310.25;4998349;28;20371;-84
2024/01/15 00:38:26;;;;;;;21.95;9.70;;;;;;;1.34;100.00;100307.59;4998141;28;20033;-85
2024/01/15 00:40:51;;;;;;;17.85;8.90;;;;;;;1.25;100.00;100290.81;4998370;28;20486;-85
2024/01/15 00:43:18;;;;;;;22.13;9.50;;;;;;;1.24;100.00;100285.50;5015854;28;20061;-85
2024/01/15 00:45:44;;;;;;;20.73;8.88;;;;;;;1.21;100.00;100283.69;5015903;28;20042;-85
2024/01/15 00:48:09;;;;;;;21.13;9.18;;;;;;;1.21;100.00;100286.31;5015770;28;20034;-85
2024/01/15 00:50:35;;;;;;;20.50;8.98;;;;;;;1.22;100.00;100285.47;5015682;28;20030;-84
2024/01/15 00:53:00;;;;;;;18.25;8.20;;;;;;;1.19;100.00;100282.72;5015677;28;20037;-85
2024/01/15 00:55:27;;;;;;;21.48;7.95;;;;;;;1.19;100.00;100281.84;4997917;28;20033;-84
2024/01/15 00:57:53;;;;;;;16.88;7.82;;;;;;;1.17;100.00;100274.00;5014899;28;20034;-86
2024/01/15 01:00:18;;;;;;;14.57;6.90;;;;;;;1.21;100.00;100277.63;5015641;28;20100;-85
2024/01/15 01:02:44;;;;;;;14.80;6.97;;;;;;;1.17;100.00;100274.00;5015513;28;20171;-85
2024/01/15 01:05:09;;;;;;;12.30;5.80;;;;;;;1.12;100.00;100262.53;4965901;28;20443;-85
2024/01/15 01:07:34;;;;;;;12.73;6.10;;;;;;;1.17;100.00;100267.91;5015267;28;20032;-86
2024/01/15 01:10:00;;;;;;;16.33;5.65;;;;;;;1.18;100.00;100267.06;5015276;28;20038;-85
2024/01/15 01:12:25;;;;;;;12.23;5.68;;;;;;;1.19;100.00;100274.03;4981532;28;20045;-85
2024/01/15 01:14:50;;;;;;;8.35;4.47;;;;;;;1.16;100.00;100263.53;5015312;28;20034;-84
2024/01/15 01:17:16;;;;;;;11.52;4.40;;;;;;;1.17;100.00;100270.50;5015191;28;20030;-84
2024/01/15 01:19:41;;;;;;;6.93;3.58;;;;;;;1.18;100.00;100265.34;4981292;28;20029;-84
2024/01/15 01:22:06;;;;;;;10.88;3.67;;;;;;;1.22;100.00;100271.56;5014787;28;20072;-85
2024/01/15 01:24:32;;;;;;;6.15;3.28;;;;;;;1.19;100.00;100261.03;5014983;28;20363;-84
2024/01/15 01:26:57;;;;;;;8.80;2.75;;;;;;;1.25;100.00;100274.31;5015072;28;20038;-84
2024/01/15 01:29:23;;;;;;;6.50;2.53;;;;;;;1.24;100.00;100267.31;5015242;28;20030;-84
2024/01/15 01:31:48;;;;;;;5.10;2.60;;;;;;;1.21;100.00;100262.00;5014984;28;20034;-84
2024/01/15 01:34:15;;;;;;;5.55;2.20;;;;;;;1.17;100.00;100261.00;5015101;28;20386;-84
2024/01/15 01:36:40;;;;;;;4.13;2.10;;;;;;;1.11;100.00;100250.31;5014937;28;20033;-84
2024/01/15 01:39:05;;;;;;;6.15;2.10;;;;;;;1.21;100.00;100272.41;5014768;28;20040;-85
2024/01/15 01:41:31;;;;;;;3.92;2.00;;;;;;;1.17;100.00;100265.31;5014601;28;20041;-85
2024/01/15 01:43:57;;;;;;;4.85;1.73;;;;;;;1.11;100.00;100260.72;4997292;28;20417;-85
2024/01/15 01:46:23;;;;;;;6.85;2.20;;;;;;;1.17;100.00;100271.41;4997260;28;20038;-85
2024/01/15 01:48:49;;;;;;;4.25;1.80;;;;;;;1.19;100.00;100279.25;5015128;28;20029;-85
2024/01/15 01:51:15;;;;;;;3.63;1.63;;;;;;;1.14;100.00;100267.78;5014633;28;20438;-85
2024/01/15 01:53:41;;;;;;;3.80;1.70;;;;;;;1.19;100.00;100268.84;5014830;28;20116;-85
2024/01/15 01:56:07;;;;;;;7.57;1.88;;;;;;;1.15;100.00;100262.63;5014804;28;20532;-85
2024/01/15 01:58:33;;;;;;;3.90;1.70;;;;;;;1.15;100.00;100269.56;5014506;28;20034;-85
2024/01/15 02:00:59;;;;;;;7.05;1.90;;;;;;;1.16;100.00;100272.22;4997065;28;20360;-86
2024/01/15 02:03:27;;;;;;;4.97;2.05;;;;;;;1.12;100.00;100270.34;4996870;28;20474;-85
2024/01/15 02:05:53;;;;;;;5.07;2.00;;;;;;;1.15;100.00;100272.16;5014666;28;20037;-85
2024/01/15 02:08:19;;;;;;;4.90;1.85;;;;;;;1.14;100.00;100270.38;4995757;28;20133;-85
2024/01/15 02:10:44;;;;;;;4.03;2.25;;;;;;;1.15;100.00;100272.16;4996589;28;20522;-85
2024/01/15 02:13:10;;;;;;;3.75;1.60;;;;;;;1.17;100.00;100267.91;5014308;28;20478;-85
2024/01/15 02:15:35;;;;;;;4.15;1.88;;;;;;;1.17;100.00;100270.50;4996287;28;20054;-86
2024/01/15 02:18:03;;;;;;;6.60;2.05;;;;;;;1.12;100.00;100261.66;5014388;28;20038;-85
2024/01/15 02:20:29;;;;;;;3.10;1.83;;;;;;;1.10;100.00;100252.88;5014117;28;20116;-85
2024/01/15 02:23:11;;;;;;;5.13;2.33;;;;;;;1.19;100.00;100263.63;5014020;28;20438;-85
2024/01/15 02:25:44;;;;;;;4.28;2.10;;;;;;;1.14;100.00;100252.16;5013821;28;20026;-85
2024/01/15 02:28:14;;;;;;;4.28;1.90;;;;;;;1.15;100.00;100259.13;4996445;28;20032;-85
2024/01/15 02:30:41;;;;;;;4.18;2.00;;;;;;;1.11;100.00;100255.53;5013590;28;20554;-85
2024/01/15 02:33:07;;;;;;;4.22;2.00;;;;;;;1.13;100.00;100260.81;4996354;28;20129;-85
2024/01/15 02:35:33;;;;;;;3.47;1.70;;;;;;;1.12;100.00;100256.44;5014016;28;20425;-85
2024/01/15 02:37:58;;;;;;;6.22;1.85;;;;;;;1.12;100.00;100259.94;5013566;28;20026;-86
2024/01/15 02:40:24;;;;;;;4.57;1.77;;;;;;;1.11;100.00;100252.94;5013721;28;20042;-85
2024/01/15 02:42:49;;;;;;;4.57;1.85;;;;;;;1.11;100.00;100263.34;4996071;28;20386;-85
2024/01/15 02:45:15;;;;;;;6.72;1.80;;;;;;;1.08;100.00;100255.44;4996058;28;20487;-85
2024/01/15 02:47:40;;;;;;;7.90;1.75;;;;;;;1.06;100.00;100251.88;5013367;28;20037;-85
2024/01/15 02:50:06;;;;;;;4.82;1.90;;;;;;;1.04;100.00;100248.34;5013636;28;20069;-86
2024/01/15 02:52:32;;;;;;;7.90;2.13;;;;;;;1.05;100.00;100257.03;5013573;28;20034;-86
2024/01/15 02:54:57;;;;;;;5.80;1.70;;;;;;;1.02;100.00;100254.28;5013600;28;20033;-87
2024/01/15 02:57:22;;;;;;;8.52;1.90;;;;;;;1.04;100.00;100255.25;4995959;28;20034;-86
2024/01/15 02:59:48;;;;;;;4.85;1.63;;;;;;;0.99;100.00;100253.34;5013668;28;20466;-85
2024/01/15 03:02:13;;;;;;;2.92;1.63;;;;;;;1.00;100.00;100251.63;5013851;28;20042;-85
2024/01/15 03:04:45;;;;;;;6.45;1.60;;;;;;;0.97;100.00;100255.00;5013569;28;20041;-85
2024/01/15 03:07:11;;;;;;;;;;;;;;;1.03;100.00;100254.38;5013730;28;20037;-86
2024/01/15 03:09:36;;;;;;;3.53;1.30;;;;;;;0.90;100.00;100247.78;5013148;28;19909;-86
2024/01/15 03:12:02;;;;;;;6.55;1.70;;;;;;;0.89;100.00;100256.41;5013232;28;20441;-85
2024/01/15 03:14:27;;;;;;;3.00;1.45;;;;;;;0.92;100.00;100261.72;5013375;28;20069;-85
2024/01/15 03:16:53;;;;;;;2.92;1.17;;;;;;;0.95;100.00;100263.59;4995698;28;20137;-85
2024/01/15 03:19:18;;;;;;;7.07;1.70;;;;;;;0.93;100.00;100254.81;4980133;28;20034;-86
2024/01/15 03:21:44;;;;;;;3.25;1.40;;;;;;;0.96;100.00;100263.63;5017645;28;20084;-86
2024/01/15 03:24:09;;;;;;;10.93;2.00;;;;;;;0.96;100.00;100255.81;4999678;28;20041;-86
2024/01/15 03:26:34;;;;;;;11.52;1.67;;;;;;;0.91;100.00;100246.06;5000166;28;20404;-87
2024/01/15 03:29:00;;;;;;;4.07;1.35;;;;;;;0.92;100.00;100246.13;4999909;28;20038;-87
2024/01/15 03:31:26;;;;;;;4.55;1.40;;;;;;;0.90;100.00;100249.47;5017338;28;20038;-86
2024/01/15 03:33:51;;;;;;;6.20;2.00;;;;;;;0.88;100.00;100241.63;5017415;28;20030;-86
2024/01/15 03:36:16;;;;;;;3.28;1.38;;;;;;;0.90;100.00;100255.59;5017655;28;20058;-86
2024/01/15 03:38:42;;;;;;;7.55;1.80;;;;;;;0.90;100.00;100249.47;5016924;28;20437;-86
2024/01/15 03:41:07;;;;;;;5.10;2.08;;;;;;;0.82;100.00;100233.59;5016996;28;20070;-86
2024/01/15 03:43:33;;;;;;;9.73;1.98;;;;;;;0.83;100.00;100239.69;4999288;28;20437;-86
2024/01/15 03:45:58;;;;;;;4.50;1.40;;;;;;;0.87;100.00;100237.25;5017152;28;20030;-87
2024/01/15 03:48:24;;;;;;;8.07;2.13;;;;;;;0.84;100.00;100236.25;5016827;28;20045;-87
2024/01/15 03:50:49;;;;;;;4.82;1.60;;;;;;;0.86;100.00;100240.69;4999469;28;20508;-86
2024/01/15 03:53:14;;;;;;;6.25;2.05;;;;;;;0.88;100.00;100244.22;4999260;28;20038;-86
2024/01/15 03:55:40;;;;;;;6.63;1.60;;;;;;;0.88;100.00;100243.34;5017213;28;20117;-87
2024/01/15 03:58:05;;;;;;;9.30;2.00;;;;;;;0.87;100.00;100226.84;4999126;28;20029;-88
2024/01/15 04:00:31;;;;;;;11.80;2.20;;;;;;;0.92;100.00;100232.25;4999366;28;20056;-87
2024/01/15 04:02:56;;;;;;;7.90;1.83;;;;;;;0.91;100.00;100233.06;4999366;28;20370;-86
2024/01/15 04:05:21;;;;;;;7.30;2.08;;;;;;;0.94;100.00;100228.88;4982940;28;20167;-87
2024/01/15 04:07:47;;;;;;;9.38;1.88;;;;;;;0.95;100.00;100227.16;5016585;28;20038;-87
2024/01/15 04:10:12;;;;;;;7.72;2.22;;;;;;;0.90;100.00;100213.06;4999388;28;20372;-87
2024/01/15 04:12:38;;;;;;;5.63;1.77;;;;;;;0.95;100.00;100207.25;4999004;28;20088;-87
2024/01/15 04:15:03;;;;;;;3.60;1.67;;;;;;;1.00;100.00;100213.50;5016617;28;20058;-87
2024/01/15 04:17:29;;;;;;;5.38;1.90;;;;;;;1.00;100.00;100216.09;5016963;28;20065;-87
2024/01/15 04:19:55;;;;;;;6.38;1.85;;;;;;;1.03;100.00;100214.44;4999287;28;20033;-87
2024/01/15 04:22:20;;;;;;;7.22;1.70;;;;;;;1.04;100.00;100211.03;5016631;28;20044;-87
2024/01/15 04:24:45;;;;;;;6.35;1.73;;;;;;;1.06;100.00;100210.25;4999123;28;20092;-87
2024/01/15 04:27:11;;;;;;;4.68;1.90;;;;;;;1.09;100.00;100214.69;4999769;28;20109;-87
2024/01/15 04:29:39;;;;;;;7.68;1.80;;;;;;;1.11;100.00;100207.81;5000459;28;20030;-87
2024/01/15 04:32:05;;;;;;;6.57;2.35;;;;;;;1.10;100.00;100209.53;5019859;28;20037;-87
2024/01/15 04:34:30;;;;;;;6.60;1.98;;;;;;;1.12;100.00;100213.09;5024590;28;20037;-86
2024/01/15 04:36:56;;;;;;;3.85;1.88;;;;;;;1.07;100.00;100204.22;5019323;28;20034;-87
2024/01/15 04:39:22;;;;;;;6.15;2.10;;;;;;;1.14;100.00;100216.63;4986101;28;20392;-85
2024/01/15 04:41:47;;;;;;;6.95;1.92;;;;;;;1.14;100.00;100202.72;5018564;28;20077;-87
2024/01/15 04:44:13;;;;;;;10.57;1.80;;;;;;;1.14;100.00;100203.63;4998449;28;20026;-87
2024/01/15 04:46:38;;;;;;;7.65;2.30;;;;;;;1.18;100.00;100202.03;4998739;28;20088;-87
2024/01/15 04:49:03;;;;;;;7.85;2.05;;;;;;;1.17;100.00;100193.34;5016124;28;20034;-87
2024/01/15 04:51:29;;;;;;;4.22;1.67;;;;;;;1.13;100.00;100181.03;4998642;28;20034;-86
2024/01/15 04:53:54;;;;;;;5.88;1.85;;;;;;;1.19;100.00;100193.38;4998296;28;20084;-87
2024/01/15 04:56:20;;;;;;;6.00;1.92;;;;;;;1.21;100.00;100199.53;4998545;28;20038;-85
2024/01/15 04:58:45;;;;;;;5.97;1.80;;;;;;;1.22;100.00;100194.38;4998172;28;20151;-85
2024/01/15 05:01:11;;;;;;;2.60;1.50;;;;;;;1.23;100.00;100203.97;4981690;28;20094;-86
2024/01/15 05:03:36;;;;;;;3.03;1.40;;;;;;;1.20;100.00;100202.94;4998131;28;20431;-85
2024/01/15 05:06:01;;;;;;;1.67;1.20;;;;;;;1.16;100.00;100191.56;4998068;28;20045;-85
2024/01/15 05:08:27;;;;;;;3.58;1.52;;;;;;;1.21;100.00;100190.03;4998108;28;20041;-85
2024/01/15 05:10:52;;;;;;;1.20;1.10;;;;;;;1.19;100.00;100186.47;5015885;28;20068;-85
2024/01/15 05:13:18;;;;;;;1.33;1.20;;;;;;;1.22;100.00;100188.31;4997967;28;20034;-85
2024/01/15 05:15:43;;;;;;;4.78;1.75;;;;;;;1.21;100.00;100184.81;5015526;28;20056;-85
2024/01/15 05:18:08;;;;;;;7.25;1.48;;;;;;;1.21;100.00;100176.13;5015177;28;20045;-85
2024/01/15 05:20:34;;;;;;;3.72;1.10;;;;;;;1.23;100.00;100179.66;4997776;28;20041;-85
2024/01/15 05:22:59;;;;;;;1.92;1.15;;;;;;;1.21;100.00;100177.00;5015493;28;20030;-86
2024/01/15 05:25:25;;;;;;;2.70;1.30;;;;;;;1.17;100.00;100167.31;4997757;28;20103;-86
2024/01/15 05:27:50;;;;;;;2.80;1.30;;;;;;;1.24;100.00;100179.72;5015425;28;20196;-86
2024/01/15 05:30:16;;;;;;;2.05;1.50;;;;;;;1.20;100.00;100170.03;4997701;28;20038;-86
2024/01/15 05:32:41;;;;;;;2.95;1.20;;;;;;;1.21;100.00;100176.13;4997756;28;20029;-86
2024/01/15 05:35:07;;;;;;;3.30;1.17;;;;;;;1.21;100.00;100183.94;5014927;28;20532;-86
2024/01/15 05:37:32;;;;;;;5.30;1.48;;;;;;;1.19;100.00;100188.19;5014543;28;20442;-87
2024/01/15 05:39:58;;;;;;;1.42;1.23;;;;;;;1.16;100.00;100180.28;4997234;28;20041;-86
2024/01/15 05:42:23;;;;;;;2.33;1.25;;;;;;;1.10;100.00;100180.91;4997374;28;20148;-86
2024/01/15 05:44:49;;;;;;;4.07;1.33;;;;;;;1.13;100.00;100182.75;4980970;28;20094;-86
2024/01/15 05:47:14;;;;;;;2.42;1.50;;;;;;;1.07;100.00;100174.69;5015143;28;20418;-86
2024/01/15 05:49:40;;;;;;;2.42;1.50;;;;;;;1.11;100.00;100181.78;4997493;28;20126;-86
2024/01/15 05:52:06;;;;;;;3.90;1.60;;;;;;;1.11;100.00;100177.47;5015229;28;20528;-85
2024/01/15 05:54:31;;;;;;;6.13;1.90;;;;;;;0.95;100.00;100143.94;4997182;28;20466;-86
2024/01/15 05:56:56;;;;;;;5.57;1.70;;;;;;;0.96;100.00;100161.31;4997227;28;20359;-86
2024/01/15 05:59:22;;;;;;;3.67;1.70;;;;;;;1.02;100.00;100171.94;5014676;28;20482;-86
2024/01/15 06:01:47;;;;;;;2.33;1.67;;;;;;;1.04;100.00;100178.09;4997071;28;20045;-86
2024/01/15 06:04:13;;;;;;;2.70;1.70;;;;;;;1.05;100.00;100172.06;5014455;28;20030;-86
2024/01/15 06:06:38;;;;;;;6.30;1.88;;;;;;;0.98;100.00;100163.13;4997043;28;20065;-86
2024/01/15 06:09:05;;;;;;;5.80;1.75;;;;;;;1.02;100.00;100169.31;4996948;28;20034;-85
2024/01/15 06:11:34;;;;;;;5.45;2.17;;;;;;;1.00;100.00;100165.78;4997195;28;20101;-85
2024/01/15 06:14:03;;;;;;;5.07;1.90;;;;;;;0.93;100.00;100158.56;5014702;28;20045;-85
2024/01/15 06:16:29;;;;;;;4.72;2.00;;;;;;;0.92;100.00;100154.22;5013969;28;20046;-85
2024/01/15 06:18:54;;;;;;;5.38;1.75;;;;;;;0.88;100.00;100149.72;5014347;28;20040;-85
2024/01/15 06:21:20;;;;;;;7.22;2.05;;;;;;;0.91;100.00;100153.31;4980502;28;20065;-85
2024/01/15 06:23:45;;;;;;;9.75;2.10;;;;;;;0.89;100.00;100143.69;4996600;28;20034;-85
2024/01/15 06:26:14;;;;;;;7.00;2.25;;;;;;;0.86;100.00;100134.06;5014210;28;20463;-85
2024/01/15 06:28:39;;;;;;;4.40;2.20;;;;;;;0.91;100.00;100144.66;5014205;28;20044;-85
2024/01/15 06:31:06;;;;;;;4.97;2.17;;;;;;;0.97;100.00;100145.75;4996286;28;20395;-84
2024/01/15 06:33:32;;;;;;;4.45;2.25;;;;;;;0.98;100.00;100149.22;5014136;28;20046;-84
2024/01/15 06:35:57;;;;;;;5.28;1.98;;;;;;;1.00;100.00;100153.66;4996655;28;20034;-85
2024/01/15 06:38:23;;;;;;;5.47;2.22;;;;;;;0.97;100.00;100143.16;5013779;28;20038;-85
2024/01/15 06:40:48;;;;;;;4.05;1.90;;;;;;;1.07;100.00;100157.41;4980415;28;20042;-85
2024/01/15 06:43:15;;;;;;;7.63;2.30;;;;;;;1.06;100.00;100146.91;4996411;28;20394;-85
2024/01/15 06:45:41;;;;;;;2.97;1.90;;;;;;;1.08;100.00;100150.47;5013824;28;20095;-86
2024/01/15 06:48:07;;;;;;;3.60;2.10;;;;;;;1.05;100.00;100142.56;4996498;28;20034;-86
2024/01/15 06:50:33;;;;;;;3.67;1.75;;;;;;;1.04;100.00;100148.59;4996637;28;20034;-85
2024/01/15 06:52:58;;;;;;;4.13;2.00;;;;;;;1.05;100.00;100145.16;5013633;28;20494;-85
2024/01/15 06:55:23;;;;;;;8.38;2.50;;;;;;;1.04;100.00;100152.06;4995667;28;20092;-85
2024/01/15 06:57:49;;;;;;;3.13;1.80;;;;;;;1.04;100.00;100151.19;5013628;28;20037;-85
2024/01/15 07:00:15;;;;;;;4.25;1.90;;;;;;;1.03;100.00;100146.78;4996009;28;20424;-85
2024/01/15 07:02:40;;;;;;;3.25;2.10;;;;;;;1.09;100.00;100152.25;4995917;28;20079;-85
2024/01/15 07:05:06;;;;;;;4.00;1.90;;;;;;;1.04;100.00;100143.38;4996065;28;20033;-85
2024/01/15 07:07:31;;;;;;;2.05;1.80;;;;;;;1.07;100.00;100143.47;4995962;28;20034;-85
2024/01/15 07:09:57;;;;;;;2.88;1.80;;;;;;;1.04;100.00;100146.88;4996039;28;20041;-85
2024/01/15 07:12:23;;;;;;;2.67;1.77;;;;;;;1.05;100.00;100150.34;4979868;28;20149;-85
2024/01/15 07:14:48;;;;;;;2.88;1.80;;;;;;;1.04;100.00;100152.06;5013290;28;20432;-85
2024/01/15 07:17:14;;;;;;;2.83;1.90;;;;;;;1.03;100.00;100158.13;4976006;28;20193;-85
2024/01/15 07:19:39;;;;;;;2.10;1.85;;;;;;;1.03;100.00;100165.00;4974677;28;20065;-85
2024/01/15 07:22:04;;;;;;;2.28;1.80;;;;;;;0.94;100.00;100156.06;4974125;28;20110;-84
2024/01/15 07:24:30;;;;;;;1.75;1.65;;;;;;;0.96;100.00;100159.59;4957002;28;20332;-85
2024/01/15 07:26:55;;;;;;;1.98;1.77;;;;;;;0.92;100.00;100155.09;4973216;28;20037;-84
2024/01/15 07:29:21;;;;;;;2.42;1.75;;;;;;;0.90;100.00;100151.56;4974294;28;20035;-84
2024/01/15 07:31:50;;;;;;;2.17;1.80;;;;;;;0.82;100.00;100139.97;4973269;28;20035;-84
2024/01/15 07:34:16;;;;;;;3.20;2.15;;;;;;;0.85;100.00;100152.19;4974283;28;20169;-84
2024/01/15 07:36:43;;;;;;;2.95;2.00;;;;;;;0.83;100.00;100154.75;4974179;28;20026;-84
2024/01/15 07:39:09;;;;;;;2.22;1.95;;;;;;;0.88;100.00;100153.19;4973814;28;20033;-84
2024/01/15 07:41:34;;;;;;;3.78;2.25;;;;;;;0.89;100.00;100159.28;4975939;28;20114;-84
2024/01/15 07:44:00;;;;;;;3.63;2.35;;;;;;;0.94;100.00;100166.47;4958143;28;20053;-84
2024/01/15 07:46:25;;;;;;;3.40;2.30;;;;;;;0.91;100.00;100155.03;4975712;28;20085;-84
2024/01/15 07:48:56;;;;;;;4.10;2.50;;;;;;;0.97;100.00;100168.28;4974220;28;20043;-84
2024/01/15 07:51:24;;;;;;;3.53;2.45;;;;;;;0.99;100.00;100170.13;4974950;28;20038;-84
2024/01/15 07:53:50;;;;;;;5.25;3.00;;;;;;;0.99;100.00;100167.50;4975885;28;20035;-85
2024/01/15 07:56:16;;;;;;;7.10;3.70;;;;;;;0.95;100.00;100160.41;4975792;28;20037;-84
2024/01/15 07:58:42;;;;;;;5.28;3.83;;;;;;;1.06;100.00;100172.94;4975743;28;20042;-84
2024/01/15 08:01:07;;;;;;;4.63;3.60;;;;;;;1.07;100.00;100179.91;4975426;28;20357;-85
2024/01/15 08:03:32;;;;;;;5.13;3.70;;;;;;;1.06;100.00;100175.53;4973042;28;20049;-85
2024/01/15 08:05:59;;;;;;;5.53;3.58;;;;;;;1.07;100.00;100170.41;4974351;28;20086;-85
2024/01/15 08:08:25;;;;;;;4.90;3.60;;;;;;;1.12;100.00;100186.19;4977259;28;20161;-85
2024/01/15 08:10:52;;;;;;;5.30;3.85;;;;;;;1.13;100.00;100191.44;4977660;28;20042;-84
2024/01/15 08:13:17;;;;;;;5.05;3.33;;;;;;;1.13;100.00;100198.38;4976603;28;20463;-85
2024/01/15 08:15:43;;;;;;;4.57;3.42;;;;;;;1.14;100.00;100195.81;4985552;28;20054;-84
2024/01/15 08:18:09;;;;;;;4.05;3.20;;;;;;;1.16;100.00;100204.59;5016496;28;20042;-84
2024/01/15 08:20:34;;;;;;;4.70;3.47;;;;;;;1.16;100.00;100201.97;5016400;28;20038;-84
2024/01/15 08:22:59;;;;;;;4.90;3.47;;;;;;;1.19;100.00;100204.66;5016292;28;20041;-85
2024/01/15 08:25:25;;;;;;;7.03;4.00;;;;;;;1.12;100.00;100192.28;4998705;28;20462;-83
2024/01/15 08:27:51;;;;;;;6.38;4.07;;;;;;;1.19;100.00;100195.97;4982683;28;20503;-86
2024/01/15 08:30:18;;;;;;;4.78;3.33;;;;;;;1.17;100.00;100188.13;5015973;28;20469;-84
2024/01/15 08:32:44;;;;;;;5.95;3.40;;;;;;;1.09;100.00;100184.34;5016912;28;20058;-88
2024/01/15 08:35:10;;;;;;;6.05;3.70;;;;;;;1.17;100.00;100184.66;4998819;28;20069;-84
2024/01/15 08:37:36;;;;;;;4.93;3.47;;;;;;;1.17;100.00;100187.25;5015624;28;20030;-85
2024/01/15 08:40:03;;;;;;;5.22;3.70;;;;;;;1.24;100.00;100200.56;4998722;28;20530;-85
2024/01/15 08:42:28;;;;;;;4.57;3.65;;;;;;;1.28;100.00;100196.31;4998583;28;20038;-86
2024/01/15 08:44:54;;;;;;;5.88;3.60;;;;;;;1.29;100.00;100192.91;4998529;28;20088;-87
2024/01/15 08:47:19;;;;;;;5.00;3.72;;;;;;;1.38;100.00;100190.66;4998138;28;20049;-86
2024/01/15 08:49:46;;;;;;;5.28;3.53;;;;;;;1.38;100.00;100195.84;4998634;28;20459;-86
2024/01/15 08:52:11;;;;;;;5.38;3.80;;;;;;;1.37;100.00;100191.50;4998450;28;20531;-88
2024/01/15 08:54:37;;;;;;;5.80;3.60;;;;;;;1.42;100.00;100199.47;5015519;28;20061;-85
2024/01/15 08:57:02;;;;;;;5.03;3.70;;;;;;;1.42;100.00;100195.13;5015726;28;20034;-86
2024/01/15 08:59:28;;;;;;;4.28;2.90;;;;;;;1.39;100.00;100195.03;5015608;28;20463;-85
2024/01/15 09:01:55;;;;;;;5.00;3.15;;;;;;;1.38;100.00;100200.19;4998043;28;20038;-86
2024/01/15 09:04:20;;;;;;;4.65;2.90;;;;;;;1.30;100.00;100180.78;5015472;28;20033;-85
2024/01/15 09:06:49;;;;;;;3.38;2.58;;;;;;;1.41;100.00;100188.16;5015312;28;20038;-86
2024/01/15 09:09:14;;;;;;;5.47;2.70;;;;;;;1.44;100.00;100188.25;5014213;28;20030;-87
2024/01/15 09:11:40;;;;;;;3.97;2.53;;;;;;;1.43;100.00;100188.22;5012643;28;20371;-88
2024/01/15 09:14:06;;;;;;;5.07;2.30;;;;;;;1.41;100.00;100189.84;5016997;28;20501;-90
2024/01/15 09:16:31;;;;;;;6.57;2.20;;;;;;;1.44;100.00;100192.59;5034683;28;20049;-89
2024/01/15 09:18:57;;;;;;;3.92;2.10;;;;;;;1.48;100.00;100194.47;5034139;28;20034;-88
2024/01/15 09:21:24;;;;;;;3.92;2.00;;;;;;;1.54;100.00;100191.19;5000815;28;20469;-89
2024/01/15 09:23:50;;;;;;;3.40;1.80;;;;;;;1.54;100.00;100183.38;5016957;28;20398;-88
2024/01/15 09:26:16;;;;;;;5.88;1.85;;;;;;;1.62;100.00;100189.75;5018745;28;20454;-89
2024/01/15 09:28:41;;;;;;;7.35;1.98;;;;;;;1.55;100.00;100179.97;5034800;28;20029;-89
2024/01/15 09:31:07;;;;;;;4.55;1.70;;;;;;;1.61;100.00;100199.28;5017002;28;20061;-90
2024/01/15 09:33:32;;;;;;;4.70;1.67;;;;;;;1.63;100.00;100194.16;5017011;28;20043;-90
2024/01/15 09:36:03;;;;;;;3.85;1.50;;;;;;;1.61;100.00;100186.25;5017068;28;20136;-89
2024/01/15 09:38:29;;;;;;;3.35;1.40;;;;;;;1.60;100.00;100174.09;5033071;28;20026;-89
2024/01/15 09:40:55;;;;;;;3.60;1.55;;;;;;;1.62;100.00;100182.81;5034327;28;20044;-89
2024/01/15 09:43:21;;;;;;;4.15;1.88;;;;;;;1.65;100.00;100195.06;5016781;28;20393;-88
2024/01/15 09:45:48;;;;;;;4.85;1.30;;;;;;;1.64;100.00;100199.41;5016634;28;20371;-89
2024/01/15 09:48:14;;;;;;;3.97;1.73;;;;;;;1.68;100.00;100201.28;5016584;28;20061;-89
2024/01/15 09:50:39;;;;;;;3.22;1.40;;;;;;;1.69;100.00;100197.84;5016750;28;20057;-90
2024/01/15 09:53:05;;;;;;;5.97;1.60;;;;;;;1.68;100.00;100198.69;5016230;28;20474;-88
2024/01/15 09:55:32;;;;;;;3.40;1.58;;;;;;;1.73;100.00;100214.47;5016386;28;20034;-88
2024/01/15 09:58:00;;;;;;;4.88;1.60;;;;;;;1.82;100.00;100216.53;5016719;28;20087;-86
2024/01/15 10:00:26;;;;;;;5.32;1.80;;;;;;;1.85;100.00;100217.53;5034375;28;20380;-85
2024/01/15 10:02:52;;;;;;;5.20;1.70;;;;;;;1.84;100.00;100215.75;5033849;28;20022;-85
2024/01/15 10:05:18;;;;;;;2.67;1.60;;;;;;;1.86;100.00;100218.41;5034165;28;20108;-85
2024/01/15 10:07:45;;;;;;;6.32;1.70;;;;;;;1.96;100.00;100213.56;5016017;28;20025;-86
2024/01/15 10:10:11;;;;;;;3.92;1.50;;;;;;;2.13;100.00;100208.94;5033615;28;20029;-86
2024/01/15 10:12:38;;;;;;;5.70;1.95;;;;;;;2.37;100.00;100211.50;5016313;28;20463;-86
2024/01/15 10:15:05;;;;;;;6.07;2.40;;;;;;;2.57;100.00;100213.84;5016658;28;20037;-86
2024/01/15 10:17:31;;;;;;;7.25;2.17;;;;;;;2.72;100.00;100204.81;5034214;28;20058;-86
2024/01/15 10:19:57;;;;;;;4.15;1.90;;;;;;;2.95;100.00;100202.03;5015994;28;20099;-87
2024/01/15 10:22:23;;;;;;;6.65;1.90;;;;;;;3.18;100.00;100197.53;5033951;28;20470;-88
2024/01/15 10:24:48;;;;;;;5.07;2.08;;;;;;;3.48;100.00;100198.41;5015627;28;20041;-88
2024/01/15 10:27:14;;;;;;;5.85;1.95;;;;;;;3.86;100.00;100197.72;5017901;28;20362;-87
2024/01/15 10:29:41;;;;;;;3.03;1.60;;;;;;;4.22;100.00;100203.91;5040986;28;20030;-87
2024/01/15 10:32:10;;;;;;;5.50;1.98;;;;;;;4.38;100.00;100206.94;5025189;28;20052;-88
2024/01/15 10:34:40;;;;;;;11.07;2.28;;;;;;;4.32;100.00;100204.13;5022785;28;20044;-87
2024/01/15 10:37:08;;;;;;;10.13;2.00;;;;;;;4.12;100.00;100207.13;5026016;28;20037;-86
2024/01/15 10:39:33;;;;;;;6.15;1.80;;;;;;;3.84;100.00;100202.00;5037399;28;20026;-88
2024/01/15 10:42:01;;;;;;;6.65;1.92;;;;;;;3.75;100.00;100213.09;5024975;28;20498;-88
2024/01/15 10:44:27;;;;;;;3.70;1.90;;;;;;;3.51;100.00;100195.91;5041752;28;20057;-88
2024/01/15 10:46:54;;;;;;;7.80;2.10;;;;;;;3.38;100.00;100205.91;5025918;28;20446;-88
2024/01/15 10:49:20;;;;;;;5.95;2.17;;;;;;;3.19;100.00;100200.16;5042598;28;20029;-89
2024/01/15 10:51:47;;;;;;;5.22;2.13;;;;;;;3.05;100.00;100180.59;5023750;28;20131;-89
2024/01/15 10:54:24;;;;;;;6.93;2.50;;;;;;;3.05;100.00;100191.03;5039458;28;20079;-87
2024/01/15 10:56:53;;;;;;;6.57;2.40;;;;;;;3.01;100.00;100189.19;5041227;28;20052;-88
2024/01/15 10:59:21;;;;;;;4.65;2.15;;;;;;;3.10;100.00;100204.22;5042782;28;20108;-87
2024/01/15 11:01:48;;;;;;;5.32;2.10;;;;;;;3.05;100.00;100203.22;5023769;28;20029;-88
2024/01/15 11:04:16;;;;;;;4.97;2.22;;;;;;;3.01;100.00;100197.00;5025828;28;20354;-87
2024/01/15 11:06:49;;;;;;;6.05;2.28;;;;;;;2.94;100.00;100180.25;5025449;28;20079;-87
2024/01/15 11:09:18;;;;;;;3.42;2.00;;;;;;;2.96;100.00;100189.03;5040431;28;20029;-88
2024/01/15 11:11:46;;;;;;;5.05;2.00;;;;;;;3.05;100.00;100192.78;5043290;28;20381;-86
2024/01/15 11:14:40;;;;;;;5.60;2.10;;;;;;;3.13;100.00;100209.56;5041734;28;20083;-88
2024/01/15 11:17:10;;;;;;;4.93;1.90;;;;;;;3.22;100.00;100189.81;5009920;28;20479;-89
2024/01/15 11:19:43;;;;;;;7.05;2.33;;;;;;;3.42;100.00;100200.81;5001279;28;20046;-88